Time;durP1;ratioP1;P1;durP2;ratioP2;P2;SDS_P1;SDS_P2;PMS_P1;PMS_P2;Temp;Humidity;BMP_temperature;BMP_pressure;BME280_temperature;BME280_humidity;BME280_pressure;Samples;Min_cycle;Max_cycle;Signal;HPM_P1;HPM_P2
2022/05/07 00:00:31;;;;;;;11.88;7.93;;;10.90;1.00;;;;;;4936819;29;20484;-77
2022/05/07 00:02:57;;;;;;;10.13;7.93;;;10.90;78.30;;;;;;4935890;29;20042;-76
2022/05/07 00:05:22;;;;;;;11.30;7.60;;;10.80;99.90;;;;;;4935637;29;20034;-77
2022/05/07 00:07:48;;;;;;;10.20;7.72;;;10.90;99.90;;;;;;4936203;29;20023;-79
2022/05/07 00:10:14;;;;;;;8.40;7.43;;;10.90;97.60;;;;;;4943248;29;20783;-76
2022/05/07 00:12:40;;;;;;;8.55;7.72;;;10.90;99.90;;;;;;4936664;29;20034;-78
2022/05/07 00:15:07;;;;;;;9.55;8.30;;;10.80;99.90;;;;;;4940643;29;20039;-75
2022/05/07 00:20:17;;;;;;;9.02;8.15;;;10.60;99.90;;;;;;4947882;29;20034;-76
2022/05/07 00:22:43;;;;;;;13.05;8.32;;;10.50;99.90;;;;;;4932436;29;20062;-77
2022/05/07 00:25:09;;;;;;;12.32;9.70;;;10.50;99.90;;;;;;4939059;29;20064;-78
2022/05/07 00:27:35;;;;;;;8.93;8.02;;;10.50;99.90;;;;;;4933228;29;20032;-77
2022/05/07 00:30:00;;;;;;;8.95;7.93;;;10.50;99.90;;;;;;4937600;29;20020;-76
2022/05/07 00:32:26;;;;;;;9.07;8.02;;;10.40;99.90;;;;;;4946483;29;20043;-78
2022/05/07 00:34:52;;;;;;;9.02;8.05;;;10.30;99.90;;;;;;4956217;29;20119;-80
2022/05/07 00:37:17;;;;;;;8.38;7.60;;;10.20;99.90;;;;;;4957821;28;20023;-75
2022/05/07 00:39:43;;;;;;;9.18;8.30;;;10.10;99.90;;;;;;4958063;28;20044;-76
2022/05/07 00:42:09;;;;;;;9.15;8.18;;;10.10;99.90;;;;;;4947077;29;20039;-78
2022/05/07 00:44:34;;;;;;;9.13;8.23;;;10.10;99.90;;;;;;4952471;29;20023;-78
2022/05/07 00:47:22;;;;;;;11.85;8.85;;;10.10;99.90;;;;;;4946015;29;20032;-77
2022/05/07 00:49:50;;;;;;;11.30;8.50;;;10.00;99.90;;;;;;4937406;29;20048;-78
2022/05/07 00:52:16;;;;;;;11.48;8.20;;;10.00;99.90;;;;;;4942398;29;20035;-79
2022/05/07 00:54:43;;;;;;;10.32;8.38;;;10.20;99.90;;;;;;4934365;29;20043;-79
2022/05/07 00:57:09;;;;;;;8.80;7.47;;;10.20;99.90;;;;;;4942099;29;20130;-81
2022/05/07 00:59:35;;;;;;;8.70;7.90;;;10.20;99.90;;;;;;4941398;29;20042;-80
2022/05/07 01:02:00;;;;;;;9.43;8.20;;;10.10;99.90;;;;;;4944376;29;20068;-80
2022/05/07 01:04:26;;;;;;;9.73;7.88;;;10.00;99.90;;;;;;4948036;29;20024;-81
2022/05/07 01:06:53;;;;;;;9.48;7.53;;;9.90;99.90;;;;;;4951191;29;20035;-83
2022/05/07 01:09:20;;;;;;;9.00;7.90;;;9.80;99.90;;;;;;4945243;29;20039;-80
2022/05/07 01:11:46;;;;;;;12.45;9.25;;;9.70;99.90;;;;;;4951134;29;20082;-81
2022/05/07 01:14:12;;;;;;;11.25;8.50;;;9.70;99.90;;;;;;4945579;29;20047;-82
2022/05/07 01:16:37;;;;;;;10.35;9.23;;;9.60;99.90;;;;;;4945246;29;20035;-82
2022/05/07 01:19:03;;;;;;;10.07;9.07;;;9.80;99.90;;;;;;4944995;29;20047;-80
2022/05/07 01:21:29;;;;;;;10.60;9.43;;;9.80;99.90;;;;;;4942983;29;20020;-77
2022/05/07 01:23:55;;;;;;;10.15;9.15;;;9.70;99.90;;;;;;4946149;29;20038;-80
2022/05/07 01:26:22;;;;;;;11.88;10.10;;;9.70;99.90;;;;;;4939247;28;20431;-80
2022/05/07 01:28:49;;;;;;;14.23;9.82;;;9.60;99.90;;;;;;4937752;29;20035;-78
2022/05/07 01:31:14;;;;;;;9.55;8.68;;;9.50;99.90;;;;;;4941619;29;20083;-81
2022/05/07 01:33:40;;;;;;;10.57;9.48;;;9.60;99.90;;;;;;4943410;29;20032;-83
2022/05/07 01:36:16;;;;;;;16.35;8.70;;;9.60;99.90;;;;;;4942427;29;20570;-80
2022/05/07 01:38:42;;;;;;;13.20;8.45;;;9.60;99.90;;;;;;4940414;29;20543;-79
2022/05/07 01:41:07;;;;;;;9.05;8.20;;;9.70;99.90;;;;;;4942625;29;20058;-74
2022/05/07 01:43:33;;;;;;;8.70;7.80;;;9.80;99.90;;;;;;4936381;29;20519;-76
2022/05/07 01:46:00;;;;;;;8.27;7.18;;;9.80;99.90;;;;;;4933004;29;20086;-74
2022/05/07 01:48:25;;;;;;;11.35;8.93;;;9.90;99.90;;;;;;4938258;29;20020;-78
2022/05/07 01:50:51;;;;;;;9.63;8.43;;;9.80;99.90;;;;;;4939416;29;20155;-77
2022/05/07 01:53:16;;;;;;;9.95;8.07;;;9.60;99.90;;;;;;4937498;29;20044;-77
2022/05/07 01:55:45;;;;;;;9.07;8.00;;;9.60;99.90;;;;;;4933728;29;20526;-78
2022/05/07 01:58:12;;;;;;;10.27;7.72;;;9.60;99.90;;;;;;4934323;29;20051;-77
2022/05/07 02:00:41;;;;;;;8.95;8.10;;;9.50;99.90;;;;;;4931264;29;20032;-77
2022/05/07 02:03:08;;;;;;;10.48;8.38;;;9.40;99.90;;;;;;4937452;29;20071;-78
2022/05/07 02:05:34;;;;;;;10.82;8.38;;;9.40;99.90;;;;;;4934965;29;20069;-77
2022/05/07 02:08:00;;;;;;;10.27;8.93;;;9.30;99.90;;;;;;4937262;29;20024;-77
2022/05/07 02:10:25;;;;;;;8.60;7.70;;;9.30;99.90;;;;;;4938412;29;20031;-78
2022/05/07 02:12:51;;;;;;;14.63;9.85;;;9.30;99.90;;;;;;4938567;29;20035;-77
2022/05/07 02:15:17;;;;;;;12.70;9.00;;;9.20;99.90;;;;;;4936155;29;20044;-77
2022/05/07 02:17:43;;;;;;;12.07;8.70;;;9.20;99.90;;;;;;4935044;29;20405;-76
2022/05/07 02:20:09;;;;;;;12.38;9.00;;;9.40;99.90;;;;;;4936705;29;20047;-77
2022/05/07 02:22:34;;;;;;;9.85;8.90;;;9.40;99.90;;;;;;4939094;29;20038;-78
2022/05/07 02:25:00;;;;;;;10.93;9.00;;;9.30;99.90;;;;;;4937604;29;20031;-77
2022/05/07 02:27:26;;;;;;;12.05;8.75;;;9.20;99.90;;;;;;4938603;29;20032;-76
2022/05/07 02:29:52;;;;;;;9.77;8.77;;;9.10;99.90;;;;;;4936703;29;20028;-77
2022/05/07 02:32:18;;;;;;;14.15;8.55;;;9.10;99.90;;;;;;4935608;29;20148;-77
2022/05/07 02:34:44;;;;;;;13.05;8.85;;;9.10;99.90;;;;;;4936033;29;20031;-77
2022/05/07 02:37:10;;;;;;;12.85;9.10;;;9.10;99.90;;;;;;4931962;29;20031;-76
2022/05/07 02:39:35;;;;;;;11.27;9.02;;;9.10;99.90;;;;;;4937077;29;20027;-77
2022/05/07 02:44:46;;;;;;;9.32;8.40;;;9.00;99.90;;;;;;4938566;29;20031;-77
2022/05/07 02:47:12;;;;;;;10.63;7.90;;;9.00;99.90;;;;;;4938426;29;20036;-76
2022/05/07 02:49:37;;;;;;;8.15;7.45;;;9.00;99.90;;;;;;4943801;29;20047;-77
2022/05/07 02:52:03;;;;;;;8.35;7.32;;;9.10;99.90;;;;;;4941404;29;20051;-76
2022/05/07 02:54:29;;;;;;;12.05;7.40;;;9.40;99.90;;;;;;4939923;29;20038;-77
2022/05/07 02:56:55;;;;;;;8.82;8.02;;;9.30;99.90;;;;;;4937079;29;20590;-80
2022/05/07 02:59:21;;;;;;;8.30;7.50;;;9.20;99.90;;;;;;4937447;29;20028;-77
2022/05/07 03:01:47;;;;;;;9.40;7.20;;;9.20;99.90;;;;;;4938304;29;20027;-77
2022/05/07 03:04:12;;;;;;;9.45;7.50;;;9.20;99.90;;;;;;4939265;29;20087;-77
2022/05/07 03:06:38;;;;;;;9.60;8.60;;;9.20;99.90;;;;;;4937203;29;20038;-76
2022/05/07 03:09:04;;;;;;;9.77;8.40;;;9.20;99.90;;;;;;4936070;29;20028;-76
2022/05/07 03:11:33;;;;;;;13.07;7.53;;;9.10;99.90;;;;;;4937392;29;20094;-77
2022/05/07 03:13:59;;;;;;;8.25;7.45;;;9.00;99.90;;;;;;4935219;29;20036;-77
2022/05/07 03:16:24;;;;;;;13.68;8.73;;;9.00;99.90;;;;;;4936874;29;20023;-76
2022/05/07 03:18:50;;;;;;;11.40;8.18;;;8.90;99.90;;;;;;4935643;29;20032;-77
2022/05/07 03:21:15;;;;;;;8.95;8.05;;;8.90;99.90;;;;;;4936096;29;20432;-76
2022/05/07 03:23:42;;;;;;;9.13;8.30;;;8.90;99.90;;;;;;4935543;29;20114;-76
2022/05/07 03:26:07;;;;;;;11.38;9.23;;;8.80;99.90;;;;;;4935312;29;20111;-77
2022/05/07 03:28:33;;;;;;;9.18;8.00;;;8.80;99.90;;;;;;4935536;29;20062;-77
2022/05/07 03:31:00;;;;;;;8.30;7.60;;;8.70;99.90;;;;;;4935636;29;20027;-77
2022/05/07 03:33:25;;;;;;;9.18;8.27;;;8.70;99.90;;;;;;4936020;29;20074;-76
2022/05/07 03:35:51;;;;;;;10.80;7.80;;;8.60;99.90;;;;;;4930795;29;20027;-75
2022/05/07 03:38:16;;;;;;;9.80;8.90;;;8.60;99.90;;;;;;4934836;29;20043;-76
2022/05/07 03:40:42;;;;;;;9.45;8.55;;;8.60;99.90;;;;;;4934178;29;20043;-76
2022/05/07 03:43:07;;;;;;;12.98;9.32;;;8.60;99.90;;;;;;4930392;29;20024;-77
2022/05/07 03:45:33;;;;;;;12.05;9.18;;;8.60;99.90;;;;;;4935085;29;20115;-77
2022/05/07 03:47:59;;;;;;;13.52;10.45;;;8.50;99.90;;;;;;4934112;29;20023;-78
2022/05/07 03:50:25;;;;;;;13.90;10.73;;;8.60;99.90;;;;;;4931132;29;20110;-77
2022/05/07 03:55:41;;;;;;;10.23;9.02;;;8.60;99.90;;;;;;4936156;29;20078;-76
2022/05/07 03:58:11;;;;;;;15.57;9.95;;;8.60;99.90;;;;;;4934680;29;20036;-76
2022/05/07 04:00:37;;;;;;;13.10;9.70;;;8.50;99.90;;;;;;4934877;29;20030;-76
2022/05/07 04:03:04;;;;;;;10.45;8.95;;;8.60;99.90;;;;;;4935232;29;20020;-76
2022/05/07 04:05:29;;;;;;;14.48;9.38;;;8.50;99.90;;;;;;4935240;29;20043;-76
2022/05/07 04:07:55;;;;;;;11.55;9.50;;;8.50;99.90;;;;;;4936097;29;20512;-77
2022/05/07 04:10:21;;;;;;;12.43;11.05;;;8.50;99.90;;;;;;4935330;29;20027;-77
2022/05/07 04:12:49;;;;;;;11.95;10.30;;;8.50;99.90;;;;;;4933001;29;20043;-77
2022/05/07 04:15:14;;;;;;;15.07;10.40;;;8.60;99.90;;;;;;4932571;29;20094;-77
2022/05/07 04:17:40;;;;;;;12.15;9.93;;;8.60;99.90;;;;;;4933581;29;20102;-76
2022/05/07 04:20:06;;;;;;;15.23;11.05;;;8.70;99.90;;;;;;4934067;29;20927;-78
2022/05/07 04:22:32;;;;;;;12.77;9.85;;;8.90;99.90;;;;;;4932469;29;20494;-76
2022/05/07 04:24:58;;;;;;;10.68;9.43;;;9.10;99.90;;;;;;4933951;29;20065;-77
2022/05/07 04:27:23;;;;;;;14.85;8.55;;;9.30;99.90;;;;;;4935540;29;20031;-76
2022/05/07 04:29:49;;;;;;;12.38;8.32;;;9.50;99.90;;;;;;4931987;29;20064;-76
2022/05/07 04:32:14;;;;;;;11.43;8.60;;;9.70;99.90;;;;;;4932227;29;20043;-77
2022/05/07 04:34:40;;;;;;;9.10;7.40;;;10.00;99.90;;;;;;4933444;29;20047;-76
2022/05/07 04:37:06;;;;;;;11.70;8.10;;;10.20;99.90;;;;;;4934299;29;20365;-76
2022/05/07 04:39:34;;;;;;;8.75;7.10;;;10.40;99.90;;;;;;4931925;29;20079;-76
2022/05/07 04:42:00;;;;;;;8.57;7.68;;;10.60;99.90;;;;;;4931264;29;20027;-77
2022/05/07 04:44:26;;;;;;;8.02;7.22;;;10.80;99.90;;;;;;4934910;29;20058;-77
2022/05/07 04:46:51;;;;;;;7.28;6.53;;;11.00;99.90;;;;;;4931779;29;20052;-77
2022/05/07 04:49:19;;;;;;;11.20;8.57;;;11.20;99.90;;;;;;4932245;29;20983;-77
2022/05/07 04:51:45;;;;;;;8.68;7.82;;;11.90;99.90;;;;;;4933060;29;20027;-76
2022/05/07 04:54:11;;;;;;;12.15;7.90;;;12.30;99.90;;;;;;4931891;29;20520;-76
2022/05/07 04:56:36;;;;;;;11.98;8.60;;;12.80;99.90;;;;;;4933407;29;20038;-77
2022/05/07 04:59:02;;;;;;;8.90;8.00;;;13.00;99.90;;;;;;4935718;29;20024;-77
2022/05/07 05:01:28;;;;;;;8.60;7.72;;;13.80;99.90;;;;;;4933385;29;20036;-76
2022/05/07 05:03:53;;;;;;;8.68;7.85;;;14.40;99.90;;;;;;4937094;29;20097;-77
2022/05/07 05:06:19;;;;;;;8.07;6.95;;;14.80;99.90;;;;;;4935745;29;20377;-76
2022/05/07 05:08:44;;;;;;;8.75;7.07;;;14.80;99.90;;;;;;4945219;29;20032;-78
2022/05/07 05:11:10;;;;;;;12.15;8.27;;;14.60;99.90;;;;;;4937440;29;20031;-76
2022/05/07 05:13:35;;;;;;;13.40;8.07;;;15.40;99.90;;;;;;4938679;29;20119;-77
2022/05/07 05:16:01;;;;;;;8.50;7.45;;;15.10;99.90;;;;;;4938162;29;21897;-77
2022/05/07 05:18:26;;;;;;;9.18;7.35;;;14.50;99.90;;;;;;4938277;29;20115;-77
2022/05/07 05:20:53;;;;;;;8.52;7.72;;;14.00;99.90;;;;;;4936999;29;20038;-76
2022/05/07 05:23:18;;;;;;;8.27;7.47;;;14.40;99.90;;;;;;4935171;29;20159;-77
2022/05/07 05:25:45;;;;;;;8.55;7.75;;;14.90;99.90;;;;;;4932426;29;20062;-76
2022/05/07 05:28:12;;;;;;;8.18;7.43;;;15.60;99.90;;;;;;4936752;29;20024;-77
2022/05/07 05:30:38;;;;;;;9.40;8.48;;;15.90;99.90;;;;;;4936692;29;20016;-76
2022/05/07 05:33:04;;;;;;;9.05;6.93;;;15.50;99.90;;;;;;4937150;29;20031;-77
2022/05/07 05:35:29;;;;;;;9.20;7.07;;;15.50;99.90;;;;;;4937866;29;20151;-76
2022/05/07 05:37:55;;;;;;;12.15;7.38;;;15.60;99.90;;;;;;4947161;29;20031;-78
2022/05/07 05:40:20;;;;;;;7.82;6.72;;;15.90;99.90;;;;;;4929828;29;20043;-77
2022/05/07 05:42:46;;;;;;;8.70;7.90;;;16.60;99.90;;;;;;4938708;28;20074;-77
2022/05/07 05:45:12;;;;;;;7.35;6.65;;;15.70;99.90;;;;;;4939659;29;20027;-78
2022/05/07 05:47:37;;;;;;;9.95;7.50;;;16.80;99.90;;;;;;4944955;28;20024;-77
2022/05/07 05:50:03;;;;;;;11.80;7.20;;;16.70;99.90;;;;;;4949714;28;20028;-77
2022/05/07 05:52:29;;;;;;;11.40;6.78;;;17.20;99.90;;;;;;4943625;28;20030;-78
2022/05/07 05:54:54;;;;;;;7.90;7.00;;;16.40;99.90;;;;;;4938957;29;20020;-78
2022/05/07 05:57:22;;;;;;;9.52;8.00;;;16.50;99.90;;;;;;4949735;29;20034;-77
2022/05/07 05:59:47;;;;;;;8.88;8.00;;;16.50;99.90;;;;;;4954248;29;20028;-77
2022/05/07 06:02:15;;;;;;;9.02;8.13;;;16.10;99.90;;;;;;4959573;29;20070;-75
2022/05/07 06:04:41;;;;;;;9.13;8.27;;;16.50;99.90;;;;;;4961853;28;20030;-76
2022/05/07 06:07:06;;;;;;;9.38;8.48;;;15.60;99.90;;;;;;4959225;28;20065;-77
2022/05/07 06:09:32;;;;;;;10.07;8.35;;;15.80;99.90;;;;;;4941733;29;20028;-77
2022/05/07 06:11:59;;;;;;;10.00;9.10;;;15.30;99.90;;;;;;4937339;29;20027;-75
2022/05/07 06:14:25;;;;;;;10.20;9.25;;;15.00;99.90;;;;;;4937488;29;20428;-77
2022/05/07 06:16:51;;;;;;;10.30;8.80;;;15.00;99.90;;;;;;4940512;29;20027;-79
2022/05/07 06:19:16;;;;;;;11.00;9.60;;;14.10;99.90;;;;;;4939053;29;20038;-77
2022/05/07 06:21:42;;;;;;;11.50;10.25;;;13.60;99.90;;;;;;4941170;29;20038;-77
2022/05/07 06:29:35;;;;;;;10.55;9.60;;;14.00;99.90;;;;;;4938325;29;20055;-77
2022/05/07 06:32:02;;;;;;;11.07;10.10;;;13.80;99.90;;;;;;4934322;29;20028;-77
2022/05/07 06:34:27;;;;;;;11.10;10.13;;;14.10;99.90;;;;;;4935686;29;20036;-76
2022/05/07 06:36:54;;;;;;;9.75;8.77;;;14.00;99.90;;;;;;4939799;29;20015;-77
2022/05/07 06:39:20;;;;;;;10.93;9.40;;;13.80;99.90;;;;;;4938647;29;20051;-77
2022/05/07 06:41:48;;;;;;;11.27;9.85;;;13.70;99.90;;;;;;4935437;29;20032;-76
2022/05/07 06:44:13;;;;;;;12.20;9.45;;;13.50;99.90;;;;;;4935362;29;20425;-77
2022/05/07 06:46:39;;;;;;;13.48;10.07;;;13.60;99.90;;;;;;4933854;29;20055;-77
2022/05/07 06:49:04;;;;;;;13.05;9.85;;;14.00;99.90;;;;;;4937228;29;20044;-76
2022/05/07 06:51:32;;;;;;;10.63;9.70;;;14.10;99.90;;;;;;4934437;29;20103;-76
2022/05/07 06:53:57;;;;;;;10.93;9.55;;;14.00;99.90;;;;;;4932612;29;20035;-76
2022/05/07 06:56:23;;;;;;;10.98;9.95;;;14.30;99.90;;;;;;4935361;29;20085;-76
2022/05/07 06:58:49;;;;;;;12.65;10.55;;;14.50;99.90;;;;;;4936229;29;20045;-77
2022/05/07 07:01:16;;;;;;;11.65;9.68;;;15.00;99.90;;;;;;4934673;29;20048;-77
2022/05/07 07:03:41;;;;;;;11.82;9.82;;;14.90;99.90;;;;;;4933313;29;20086;-77
2022/05/07 07:06:07;;;;;;;10.93;9.18;;;15.10;99.90;;;;;;4934404;29;20024;-76
2022/05/07 07:08:33;;;;;;;14.48;10.18;;;15.30;99.90;;;;;;4936354;29;20500;-76
2022/05/07 07:10:59;;;;;;;11.88;10.43;;;15.40;99.90;;;;;;4934438;29;20019;-76
2022/05/07 07:13:25;;;;;;;12.07;10.05;;;15.40;99.90;;;;;;4934818;29;20032;-76
2022/05/07 07:15:50;;;;;;;13.65;10.13;;;15.40;99.90;;;;;;4944734;29;20027;-77
2022/05/07 07:18:16;;;;;;;12.13;10.88;;;15.40;99.90;;;;;;4935924;29;20078;-77
2022/05/07 07:20:43;;;;;;;10.52;9.52;;;15.10;99.90;;;;;;4935708;29;20022;-79
2022/05/07 07:23:11;;;;;;;10.50;9.45;;;15.50;99.90;;;;;;4937312;29;20031;-77
2022/05/07 07:25:40;;;;;;;10.27;9.23;;;15.70;99.90;;;;;;4938295;29;20027;-76
2022/05/07 07:28:10;;;;;;;10.20;9.23;;;15.90;99.90;;;;;;4937192;29;20042;-77
2022/05/07 07:30:36;;;;;;;10.68;9.68;;;15.90;99.90;;;;;;4930344;29;20031;-77
2022/05/07 07:33:03;;;;;;;10.52;9.27;;;15.60;99.90;;;;;;4937174;29;20036;-77
2022/05/07 07:35:28;;;;;;;10.90;8.55;;;15.80;99.90;;;;;;4937970;29;20563;-77
2022/05/07 07:37:54;;;;;;;11.38;9.38;;;16.20;99.90;;;;;;4934145;29;20031;-76
2022/05/07 07:40:20;;;;;;;10.93;9.43;;;16.40;99.90;;;;;;4935958;29;20508;-77
2022/05/07 07:42:45;;;;;;;12.02;8.50;;;16.50;99.90;;;;;;4931868;29;20054;-77
2022/05/07 07:47:57;;;;;;;9.60;8.57;;;16.10;99.90;;;;;;4934287;29;20049;-77
2022/05/07 07:50:31;;;;;;;9.82;8.98;;;16.50;99.90;;;;;;4930191;29;20541;-77
2022/05/07 07:53:03;;;;;;;9.85;8.85;;;16.30;99.90;;;;;;4935342;29;20040;-77
2022/05/07 07:55:29;;;;;;;9.55;8.73;;;16.70;99.90;;;;;;4932729;29;20032;-80
2022/05/07 07:58:02;;;;;;;10.25;8.98;;;16.80;99.90;;;;;;4938274;29;20024;-77
2022/05/07 08:00:30;;;;;;;14.05;8.50;;;17.10;99.90;;;;;;4933410;29;20055;-76
2022/05/07 08:03:00;;;;;;;9.98;8.75;;;16.60;99.90;;;;;;4934728;29;20016;-77
2022/05/07 08:05:32;;;;;;;10.05;9.18;;;16.90;99.90;;;;;;4925597;29;20035;-77
2022/05/07 08:13:30;;;;;;;10.38;9.48;;;17.30;99.90;;;;;;4930941;29;20416;-77
2022/05/07 08:15:56;;;;;;;10.77;9.68;;;17.30;99.90;;;;;;4932439;29;20031;-77
2022/05/07 08:18:21;;;;;;;10.95;9.63;;;17.30;99.90;;;;;;4934598;29;20020;-76
2022/05/07 08:20:47;;;;;;;9.68;8.88;;;17.60;99.90;;;;;;4934749;29;20027;-76
2022/05/07 08:23:12;;;;;;;9.90;8.77;;;17.80;99.90;;;;;;4934507;29;20090;-77
2022/05/07 08:25:38;;;;;;;16.20;8.45;;;17.60;99.90;;;;;;4932057;29;20027;-77
2022/05/07 08:28:04;;;;;;;10.70;9.23;;;17.50;99.90;;;;;;4933048;29;20127;-76
2022/05/07 08:30:30;;;;;;;10.68;9.57;;;18.00;99.90;;;;;;4933589;29;20015;-78
2022/05/07 08:32:57;;;;;;;10.25;9.27;;;18.00;99.90;;;;;;4928955;29;20024;-76
2022/05/07 08:35:23;;;;;;;11.55;10.35;;;17.90;99.90;;;;;;4932455;29;20047;-77
2022/05/07 08:37:50;;;;;;;11.32;10.13;;;18.30;99.90;;;;;;4935356;29;20516;-76
2022/05/07 08:40:17;;;;;;;12.15;9.45;;;18.30;99.90;;;;;;4933700;29;20107;-78
2022/05/07 08:42:43;;;;;;;9.20;8.32;;;18.20;99.90;;;;;;4927374;29;20035;-77
2022/05/07 08:45:12;;;;;;;9.60;8.70;;;18.20;99.90;;;;;;4931977;29;20024;-79
2022/05/07 08:47:38;;;;;;;10.10;9.10;;;18.30;99.90;;;;;;4937027;29;20031;-81
2022/05/07 08:50:14;;;;;;;9.77;8.55;;;18.80;99.90;;;;;;4942709;29;20124;-76
2022/05/07 08:52:42;;;;;;;10.07;9.10;;;18.80;99.90;;;;;;4934411;29;20024;-77
2022/05/07 08:55:12;;;;;;;12.38;8.80;;;19.00;99.90;;;;;;4932606;29;20035;-77
2022/05/07 08:57:39;;;;;;;14.65;9.10;;;19.00;99.90;;;;;;4935596;29;20059;-78
2022/05/07 09:00:06;;;;;;;9.55;8.75;;;18.80;99.90;;;;;;4935920;29;20452;-78
2022/05/07 09:02:44;;;;;;;11.70;9.45;;;18.70;99.90;;;;;;4936643;29;20027;-78
2022/05/07 09:05:12;;;;;;;9.80;8.60;;;18.60;99.90;;;;;;4934773;29;20055;-78
2022/05/07 09:07:40;;;;;;;10.82;8.82;;;18.50;99.90;;;;;;4929764;29;20020;-77
2022/05/07 09:10:10;;;;;;;9.13;8.23;;;18.20;99.90;;;;;;4928883;29;20039;-78
2022/05/07 09:12:36;;;;;;;10.93;7.18;;;18.30;99.90;;;;;;4937472;29;20024;-79
2022/05/07 09:15:06;;;;;;;8.40;7.60;;;18.60;99.90;;;;;;4938238;29;20122;-78
2022/05/07 09:17:33;;;;;;;9.75;6.95;;;19.00;99.90;;;;;;4936623;29;20042;-77
2022/05/07 09:20:08;;;;;;;8.15;7.32;;;18.90;99.90;;;;;;4926794;29;20122;-76
2022/05/07 09:22:34;;;;;;;7.13;6.50;;;19.00;99.90;;;;;;4934726;29;20492;-78
2022/05/07 09:25:00;;;;;;;8.55;6.95;;;19.30;99.90;;;;;;4934809;29;20035;-79
2022/05/07 09:27:25;;;;;;;6.75;6.05;;;19.50;99.90;;;;;;4936650;29;20042;-79
2022/05/07 09:30:03;;;;;;;6.32;5.68;;;19.10;99.90;;;;;;4931701;29;20527;-79
2022/05/07 09:32:38;;;;;;;8.93;5.80;;;19.40;99.90;;;;;;4930393;29;20103;-79
2022/05/07 09:38:05;;;;;;;4.55;3.90;;;19.80;97.90;;;;;;4936196;29;20107;-77
2022/05/07 09:40:31;;;;;;;9.18;4.13;;;19.90;97.40;;;;;;4934855;29;20031;-79
2022/05/07 09:42:57;;;;;;;7.05;4.00;;;19.90;98.10;;;;;;4934988;29;20027;-79
2022/05/07 09:45:30;;;;;;;4.63;4.10;;;19.90;98.10;;;;;;4934853;29;20032;-80
2022/05/07 09:47:56;;;;;;;4.10;3.25;;;19.90;97.00;;;;;;4936116;29;20133;-80
2022/05/07 09:50:25;;;;;;;5.63;3.22;;;19.90;97.00;;;;;;4928692;29;20024;-80
2022/05/07 09:58:20;;;;;;;3.88;3.15;;;20.60;95.50;;;;;;4937024;29;20039;-77
2022/05/07 10:01:03;;;;;;;2.67;2.42;;;20.60;94.70;;;;;;4936396;29;20094;-75
2022/05/07 10:03:58;;;;;;;4.85;2.00;;;20.70;94.20;;;;;;4939579;29;20047;-76
2022/05/07 10:06:40;;;;;;;2.40;2.20;;;20.60;93.20;;;;;;4933518;29;20047;-76
2022/05/07 10:09:32;;;;;;;3.22;2.92;;;20.60;92.00;;;;;;4935086;29;20099;-75
2022/05/07 10:11:58;;;;;;;3.97;3.20;;;20.50;93.20;;;;;;4933706;29;20479;-75
2022/05/07 10:14:26;;;;;;;3.97;2.35;;;20.20;93.50;;;;;;4937516;29;20043;-75
2022/05/07 10:17:08;;;;;;;3.75;2.20;;;19.90;92.20;;;;;;4933577;28;20031;-76
2022/05/07 10:19:43;;;;;;;4.05;2.50;;;19.60;91.40;;;;;;4933673;29;20549;-76
2022/05/07 10:22:29;;;;;;;1.63;1.08;;;20.00;92.80;;;;;;4937566;29;20035;-75
2022/05/07 10:25:06;;;;;;;5.00;1.30;;;20.20;85.10;;;;;;4937417;29;22742;-78
2022/05/07 10:27:32;;;;;;;2.67;1.40;;;20.40;82.90;;;;;;4935383;29;20121;-76
2022/05/07 10:30:21;;;;;;;3.25;1.70;;;20.50;84.80;;;;;;4937785;29;20020;-77
2022/05/07 10:32:57;;;;;;;3.55;2.40;;;20.90;84.60;;;;;;4940362;29;20441;-77
2022/05/07 10:35:55;;;;;;;3.53;2.22;;;20.40;84.90;;;;;;4930255;29;20036;-77
2022/05/07 10:38:29;;;;;;;2.60;2.33;;;20.10;88.00;;;;;;4921688;29;20040;-76
2022/05/07 10:41:05;;;;;;;3.75;2.70;;;20.10;90.40;;;;;;4935959;29;20035;-82
2022/05/07 10:43:35;;;;;;;4.50;3.10;;;20.30;90.80;;;;;;4937720;29;20027;-82
2022/05/07 10:46:19;;;;;;;4.00;2.22;;;20.40;90.30;;;;;;4939913;29;20019;-82
2022/05/07 10:48:45;;;;;;;4.97;2.60;;;20.50;90.50;;;;;;4938294;29;20031;-82
2022/05/07 10:51:25;;;;;;;3.72;2.65;;;20.70;90.10;;;;;;4937346;29;20114;-80
2022/05/07 10:53:51;;;;;;;3.22;2.15;;;21.10;90.10;;;;;;4933359;29;20035;-77
2022/05/07 10:56:20;;;;;;;3.15;2.55;;;20.90;90.00;;;;;;4937629;29;20039;-82
2022/05/07 10:58:48;;;;;;;2.70;2.50;;;20.30;90.10;;;;;;4936363;29;20070;-79
2022/05/07 11:01:14;;;;;;;3.67;2.60;;;19.60;90.30;;;;;;4938169;29;20404;-80
2022/05/07 11:03:40;;;;;;;2.97;2.28;;;19.70;90.00;;;;;;4947984;29;20039;-82
2022/05/07 11:06:06;;;;;;;3.13;2.47;;;20.10;90.00;;;;;;4950853;29;20110;-78
2022/05/07 11:08:32;;;;;;;3.70;2.30;;;20.30;88.50;;;;;;4952959;29;20051;-79
2022/05/07 11:11:10;;;;;;;5.47;2.10;;;20.30;89.60;;;;;;4950932;28;20032;-81
2022/05/07 11:13:49;;;;;;;6.18;2.20;;;20.70;88.30;;;;;;4938744;29;20035;-80
2022/05/07 11:16:18;;;;;;;2.78;2.05;;;20.80;84.40;;;;;;4937713;29;20064;-79
2022/05/07 11:18:45;;;;;;;2.15;1.70;;;20.80;85.90;;;;;;4942845;29;20119;-81
2022/05/07 11:21:11;;;;;;;2.67;2.00;;;21.10;85.30;;;;;;4939430;29;20492;-81
2022/05/07 11:23:39;;;;;;;5.10;1.95;;;20.90;85.40;;;;;;4947401;29;20130;-81
2022/05/07 11:26:16;;;;;;;2.83;1.70;;;20.70;85.30;;;;;;4958517;28;20019;-80
2022/05/07 11:28:43;;;;;;;3.15;2.15;;;21.00;84.70;;;;;;4964226;28;20034;-80
2022/05/07 11:31:10;;;;;;;2.75;1.98;;;20.80;83.20;;;;;;4962445;28;20019;-80
2022/05/07 11:33:37;;;;;;;2.38;1.60;;;21.20;83.30;;;;;;4960185;28;20102;-77
2022/05/07 11:36:06;;;;;;;4.07;1.60;;;21.30;83.30;;;;;;4959533;28;20039;-78
2022/05/07 11:38:34;;;;;;;2.53;1.58;;;21.40;82.40;;;;;;4950459;29;20027;-76
2022/05/07 11:41:16;;;;;;;2.60;1.60;;;21.40;79.70;;;;;;4946701;29;20110;-77
2022/05/07 11:46:34;;;;;;;2.85;2.15;;;21.40;78.20;;;;;;4943179;29;20031;-77
2022/05/07 11:49:06;;;;;;;3.17;1.50;;;21.00;78.70;;;;;;4935283;29;20028;-78
2022/05/07 11:51:32;;;;;;;2.25;1.50;;;20.80;79.50;;;;;;4938656;29;20024;-77
2022/05/07 11:54:08;;;;;;;2.85;1.27;;;20.60;81.10;;;;;;4938568;29;20042;-78
2022/05/07 11:56:44;;;;;;;2.92;1.20;;;21.10;78.00;;;;;;4943274;29;20043;-78
2022/05/07 11:59:09;;;;;;;3.38;1.05;;;21.40;77.00;;;;;;4940644;29;20024;-78
2022/05/07 12:01:35;;;;;;;3.45;1.85;;;21.70;77.30;;;;;;4934166;29;20027;-79
2022/05/07 12:04:10;;;;;;;3.75;1.70;;;22.00;76.80;;;;;;4935418;29;20039;-78
2022/05/07 12:06:35;;;;;;;2.42;1.52;;;21.60;78.40;;;;;;4931316;29;20544;-76
2022/05/07 12:09:12;;;;;;;4.70;1.90;;;21.60;78.50;;;;;;4935071;29;20059;-79
2022/05/07 12:11:38;;;;;;;2.60;1.58;;;21.20;79.70;;;;;;4937801;29;20071;-79
2022/05/07 12:14:03;;;;;;;1.63;1.52;;;21.40;79.70;;;;;;4936810;29;20436;-78
2022/05/07 12:19:13;;;;;;;2.75;1.50;;;21.20;79.10;;;;;;4937244;29;20518;-77
2022/05/07 12:29:51;;;;;;;3.05;1.60;;;20.80;80.20;;;;;;4936544;29;20042;-77
2022/05/07 12:32:19;;;;;;;5.95;1.83;;;20.70;79.80;;;;;;4937245;29;20074;-78
2022/05/07 12:34:44;;;;;;;1.65;1.48;;;20.60;79.90;;;;;;4940551;29;20058;-77
2022/05/07 12:37:11;;;;;;;4.40;3.10;;;20.40;80.80;;;;;;4934527;29;20020;-79
2022/05/07 12:39:38;;;;;;;2.75;1.40;;;20.80;79.80;;;;;;4940330;29;20031;-78
2022/05/07 12:42:07;;;;;;;3.47;1.60;;;21.00;78.90;;;;;;4937035;29;20023;-78
2022/05/07 12:44:33;;;;;;;2.42;1.42;;;21.00;78.80;;;;;;4944203;29;20035;-78
2022/05/07 12:46:59;;;;;;;4.28;1.75;;;21.30;78.50;;;;;;4937601;29;20032;-78
2022/05/07 12:49:25;;;;;;;2.10;1.30;;;21.50;77.60;;;;;;4942614;29;20114;-77
2022/05/07 12:51:51;;;;;;;2.45;1.63;;;21.40;77.80;;;;;;4917880;29;20110;-79
2022/05/07 12:54:17;;;;;;;2.53;1.50;;;21.40;77.60;;;;;;4938167;29;20394;-78
2022/05/07 12:56:44;;;;;;;1.48;1.38;;;21.40;77.80;;;;;;4939317;29;20088;-79
2022/05/07 12:59:10;;;;;;;1.27;1.00;;;21.90;75.90;;;;;;4938298;29;20091;-77
2022/05/07 13:01:35;;;;;;;2.15;1.27;;;22.20;76.70;;;;;;4937459;29;20036;-76
2022/05/07 13:04:01;;;;;;;5.90;1.50;;;21.90;76.50;;;;;;4936733;29;20083;-75
2022/05/07 13:06:26;;;;;;;2.40;1.80;;;21.50;76.70;;;;;;4940222;28;20040;-78
2022/05/07 13:08:52;;;;;;;3.50;1.40;;;21.70;77.30;;;;;;4931641;29;20084;-76
2022/05/07 13:11:17;;;;;;;6.47;1.38;;;22.10;76.70;;;;;;4937537;28;20063;-77
2022/05/07 13:13:44;;;;;;;4.63;1.55;;;22.40;75.10;;;;;;4935193;29;20091;-78
2022/05/07 13:16:11;;;;;;;1.85;1.38;;;22.20;75.20;;;;;;4935599;29;20094;-76
2022/05/07 13:18:37;;;;;;;2.55;1.98;;;21.80;75.20;;;;;;4935209;29;20027;-76
2022/05/07 13:21:02;;;;;;;2.65;0.90;;;22.40;72.90;;;;;;4934857;29;20074;-77
2022/05/07 13:23:28;;;;;;;1.85;1.40;;;22.60;73.70;;;;;;4936799;29;20027;-76
2022/05/07 13:25:54;;;;;;;2.08;1.40;;;22.80;71.70;;;;;;4940204;29;20035;-78
2022/05/07 13:28:19;;;;;;;3.50;1.55;;;22.60;73.00;;;;;;4939570;29;20035;-77
2022/05/07 13:30:45;;;;;;;1.88;1.30;;;22.50;72.90;;;;;;4938043;29;20042;-77